createdAt,value
2018-10-07T00:02:26.409Z,101013.02
2018-10-07T00:04:54.753Z,101021.35
2018-10-07T00:07:23.378Z,101018.18
2018-10-07T00:09:51.759Z,101023.11
2018-10-07T00:12:20.102Z,101034.77
2018-10-07T00:14:48.677Z,101015.28
2018-10-07T00:17:17.024Z,101025.98
2018-10-07T00:19:45.380Z,101042.53
2018-10-07T00:22:13.764Z,101061.58
2018-10-07T00:24:42.185Z,101068.95
2018-10-07T00:27:10.521Z,101077.71
2018-10-07T00:29:38.889Z,101089.97
2018-10-07T00:32:12.889Z,101092.83
2018-10-07T00:34:41.296Z,101089.13
2018-10-07T00:37:09.841Z,101096.74
2018-10-07T00:39:38.217Z,101104.72
2018-10-07T00:42:06.649Z,101107.41
2018-10-07T00:44:36.005Z,101128.33
2018-10-07T00:47:04.412Z,101128.27
2018-10-07T00:49:32.789Z,101119.59
2018-10-07T00:52:01.164Z,101122.77
2018-10-07T00:54:29.552Z,101125.77
2018-10-07T00:56:57.928Z,101130.77
2018-10-07T00:59:26.313Z,101149.48
2018-10-07T01:01:54.656Z,101147.49
2018-10-07T01:05:47.428Z,101141.75
2018-10-07T01:08:15.775Z,101165.84
2018-10-07T01:10:44.113Z,101178.80
2018-10-07T01:13:12.481Z,101182.92
2018-10-07T01:15:40.907Z,101180.39
2018-10-07T01:18:09.277Z,101185.54
2018-10-07T01:20:37.841Z,101177.95
2018-10-07T01:23:07.672Z,101190.39
2018-10-07T01:25:36.128Z,101181.77
2018-10-07T01:28:04.728Z,101196.23
2018-10-07T01:30:33.053Z,101205.25
2018-10-07T01:33:01.421Z,101213.23
2018-10-07T01:35:29.785Z,101223.55
2018-10-07T01:37:58.116Z,101227.64
2018-10-07T01:40:26.465Z,101229.50
2018-10-07T01:42:54.981Z,101224.16
2018-10-07T01:45:23.325Z,101233.59
2018-10-07T01:47:51.660Z,101230.81
2018-10-07T01:50:20.021Z,101238.27
2018-10-07T01:52:48.361Z,101247.20
2018-10-07T01:55:16.709Z,101248.02
2018-10-07T01:57:45.148Z,101252.78
2018-10-07T02:00:13.784Z,101268.23
2018-10-07T02:02:42.168Z,101271.86
2018-10-07T02:05:10.600Z,101277.87
2018-10-07T02:07:38.878Z,101285.30
2018-10-07T02:10:07.504Z,101287.78
2018-10-07T02:12:35.844Z,101284.35
2018-10-07T02:15:04.204Z,101289.28
2018-10-07T02:17:32.596Z,101297.13
2018-10-07T02:20:00.924Z,101294.39
2018-10-07T02:22:29.447Z,101308.55
2018-10-07T02:24:57.785Z,101311.45
2018-10-07T02:27:26.137Z,101311.39
2018-10-07T02:29:54.520Z,101318.85
2018-10-07T02:32:22.856Z,101314.81
2018-10-07T02:34:56.688Z,101315.23
2018-10-07T02:37:25.333Z,101313.20
2018-10-07T02:39:53.705Z,101322.83
2018-10-07T02:42:22.220Z,101329.14
2018-10-07T02:44:50.601Z,101339.13
2018-10-07T02:47:18.986Z,101341.85
2018-10-07T02:49:48.782Z,101351.52
2018-10-07T02:52:25.095Z,101363.85
2018-10-07T02:54:53.513Z,101369.03
2018-10-07T02:57:23.173Z,101373.02
2018-10-07T02:59:52.133Z,101373.06
2018-10-07T03:02:20.809Z,101371.49
2018-10-07T03:04:49.247Z,101384.58
2018-10-07T03:07:17.560Z,101377.23
2018-10-07T03:09:45.954Z,101375.54
2018-10-07T03:12:14.303Z,101367.46
2018-10-07T03:14:42.630Z,101385.57
2018-10-07T03:17:10.994Z,101399.84
2018-10-07T03:19:39.360Z,101403.52
2018-10-07T03:22:07.724Z,101411.43
2018-10-07T03:24:36.101Z,101416.98
2018-10-07T03:27:04.460Z,101412.84
2018-10-07T03:29:32.971Z,101412.38
2018-10-07T03:32:01.261Z,101398.52
2018-10-07T03:34:29.593Z,101405.29
2018-10-07T03:36:59.090Z,101408.17
2018-10-07T03:39:28.541Z,101401.95
2018-10-07T03:41:56.918Z,101411.86
2018-10-07T03:44:25.257Z,101413.43
2018-10-07T03:46:54.968Z,101414.02
2018-10-07T03:49:23.300Z,101409.44
2018-10-07T03:51:51.676Z,101414.59
2018-10-07T03:54:20.077Z,101429.52
2018-10-07T03:56:49.492Z,101426.97
2018-10-07T03:59:17.940Z,101440.43
2018-10-07T04:01:46.552Z,101441.73
2018-10-07T04:04:15.970Z,101439.78
2018-10-07T04:06:44.351Z,101444.69
2018-10-07T04:09:13.420Z,101450.64
2018-10-07T04:11:43.013Z,101464.00
2018-10-07T04:14:12.417Z,101463.06
2018-10-07T04:18:09.907Z,101471.30
2018-10-07T04:20:38.247Z,101470.61
2018-10-07T04:23:06.912Z,101472.49
2018-10-07T04:25:36.411Z,101473.55
2018-10-07T04:28:05.780Z,101470.31
2018-10-07T04:30:34.213Z,101471.19
2018-10-07T04:33:02.650Z,101476.34
2018-10-07T04:35:31.085Z,101473.95
2018-10-07T04:37:59.435Z,101480.38
2018-10-07T04:40:27.786Z,101483.83
2018-10-07T04:42:56.188Z,101487.59
2018-10-07T04:45:25.664Z,101486.94
2018-10-07T04:47:55.033Z,101491.73
2018-10-07T04:50:23.380Z,101496.92
2018-10-07T04:52:51.808Z,101497.40
2018-10-07T04:55:21.212Z,101495.03
2018-10-07T04:57:49.547Z,101500.66
2018-10-07T05:00:18.153Z,101505.15
2018-10-07T05:02:46.421Z,101515.03
2018-10-07T05:05:14.761Z,101510.94
2018-10-07T05:07:43.460Z,101502.05
2018-10-07T05:10:54.469Z,101518.37
2018-10-07T05:13:25.173Z,101526.41
2018-10-07T05:15:56.237Z,101523.07
2018-10-07T05:18:24.967Z,101528.76
2018-10-07T05:20:54.339Z,101542.19
2018-10-07T05:23:22.810Z,101542.05
2018-10-07T05:25:51.468Z,101550.81
2018-10-07T05:28:20.972Z,101556.87
2018-10-07T05:30:49.334Z,101560.13
2018-10-07T05:33:17.668Z,101560.88
2018-10-07T05:35:46.032Z,101568.83
2018-10-07T05:38:14.409Z,101569.90
2018-10-07T05:40:42.801Z,101572.47
2018-10-07T05:43:11.144Z,101580.13
2018-10-07T05:45:39.489Z,101581.34
2018-10-07T05:48:07.847Z,101593.33
2018-10-07T05:50:36.186Z,101596.41
2018-10-07T05:53:04.541Z,101604.72
2018-10-07T05:55:33.255Z,101610.31
2018-10-07T05:58:03.001Z,101616.64
2018-10-07T06:00:32.169Z,101618.64
2018-10-07T06:03:08.753Z,101625.09
2018-10-07T06:05:37.133Z,101638.47
2018-10-07T06:08:05.541Z,101634.20
2018-10-07T06:10:33.927Z,101635.17
2018-10-07T06:13:02.272Z,101640.61
2018-10-07T06:15:38.263Z,101645.08
2018-10-07T06:18:07.492Z,101650.27
2018-10-07T06:20:35.846Z,101650.90
2018-10-07T06:23:04.253Z,101655.77
2018-10-07T06:25:32.617Z,101654.95
2018-10-07T06:28:00.976Z,101661.31
2018-10-07T06:30:29.460Z,101663.74
2018-10-07T06:32:57.809Z,101668.89
2018-10-07T06:35:26.618Z,101672.33
2018-10-07T06:37:56.582Z,101684.84
2018-10-07T06:40:26.077Z,101693.81
2018-10-07T06:42:54.461Z,101699.13
2018-10-07T06:45:22.849Z,101693.97
2018-10-07T06:47:51.208Z,101690.17
2018-10-07T06:50:19.581Z,101691.57
2018-10-07T06:52:47.932Z,101703.26
2018-10-07T06:55:16.309Z,101712.39
2018-10-07T06:57:44.653Z,101715.84
2018-10-07T07:00:13.032Z,101721.64
2018-10-07T07:02:41.445Z,101719.58
2018-10-07T07:05:10.452Z,101719.13
2018-10-07T07:07:38.792Z,101723.56
2018-10-07T07:10:07.160Z,101726.73
2018-10-07T07:12:36.508Z,101721.45
2018-10-07T07:15:04.909Z,101726.62
2018-10-07T07:17:33.252Z,101721.06
2018-10-07T07:20:01.638Z,101705.82
2018-10-07T07:22:29.924Z,101703.52
2018-10-07T07:24:58.300Z,101712.16
2018-10-07T07:27:26.634Z,101710.09
2018-10-07T07:29:54.976Z,101729.44
2018-10-07T07:32:23.328Z,101734.35
2018-10-07T07:34:51.660Z,101741.47
2018-10-07T07:37:20.012Z,101742.41
2018-10-07T07:39:48.349Z,101754.14
2018-10-07T07:42:17.747Z,101756.94
2018-10-07T07:44:46.070Z,101763.80
2018-10-07T07:47:14.412Z,101770.36
2018-10-07T07:49:42.802Z,101783.96
2018-10-07T07:52:11.709Z,101787.25
2018-10-07T07:54:41.077Z,101786.53
2018-10-07T07:57:09.417Z,101786.44
2018-10-07T07:59:37.760Z,101790.17
2018-10-07T08:03:30.540Z,101789.84
2018-10-07T08:05:58.977Z,101797.75
2018-10-07T08:08:27.393Z,101806.06
2018-10-07T08:10:55.813Z,101821.61
2018-10-07T08:13:24.181Z,101830.54
2018-10-07T08:15:52.540Z,101840.13
2018-10-07T08:18:20.941Z,101855.81
2018-10-07T08:20:49.293Z,101844.58
2018-10-07T08:23:17.829Z,101852.61
2018-10-07T08:25:46.149Z,101851.95
2018-10-07T08:35:23.361Z,101858.33
2018-10-07T08:37:51.685Z,101869.16
2018-10-07T08:40:20.082Z,101868.66
2018-10-07T08:42:48.448Z,101879.27
2018-10-07T08:45:16.857Z,101890.32
2018-10-07T08:47:45.200Z,101890.02
2018-10-07T08:50:13.565Z,101898.95
2018-10-07T08:52:41.971Z,101901.05
2018-10-07T08:55:10.324Z,101898.94
2018-10-07T08:57:39.456Z,101904.27
2018-10-07T09:00:07.909Z,101901.80
2018-10-07T09:02:36.257Z,101911.64
2018-10-07T09:05:05.625Z,101915.92
2018-10-07T09:07:34.133Z,101913.41
2018-10-07T09:10:02.463Z,101927.30
2018-10-07T09:12:30.805Z,101930.62
2018-10-07T09:15:02.387Z,101930.48
2018-10-07T09:17:30.732Z,101928.64
2018-10-07T09:19:59.088Z,101936.56
2018-10-07T09:22:27.496Z,101949.67
2018-10-07T09:24:55.900Z,101942.20
2018-10-07T09:27:24.292Z,101937.19
2018-10-07T09:29:52.665Z,101941.55
2018-10-07T09:32:21.040Z,101934.15
2018-10-07T09:34:49.400Z,101940.11
2018-10-07T09:37:17.720Z,101936.23
2018-10-07T09:39:47.069Z,101937.33
2018-10-07T09:42:15.388Z,101932.52
2018-10-07T09:44:44.804Z,101933.33
2018-10-07T09:47:13.218Z,101935.69
2018-10-07T09:49:41.564Z,101940.69
2018-10-07T09:52:09.949Z,101940.94
2018-10-07T09:54:38.309Z,101942.53
2018-10-07T09:57:07.008Z,101947.23
2018-10-07T09:59:35.368Z,101951.19
2018-10-07T10:02:03.741Z,101954.56
2018-10-07T10:04:32.119Z,101954.22
2018-10-07T10:07:00.550Z,101951.42
2018-10-07T10:09:28.933Z,101954.84
2018-10-07T10:11:57.321Z,101959.78
2018-10-07T10:14:25.669Z,101963.13
2018-10-07T10:16:58.497Z,101963.03
2018-10-07T10:19:32.562Z,101955.89
2018-10-07T10:22:09.704Z,101951.58
2018-10-07T10:25:20.164Z,101949.42
2018-10-07T10:28:09.597Z,101954.92
2018-10-07T10:32:22.697Z,101952.77
2018-10-07T10:35:04.033Z,101952.56
2018-10-07T10:37:43.983Z,101950.15
2018-10-07T10:40:22.559Z,101946.43
2018-10-07T10:42:53.798Z,101946.71
2018-10-07T10:45:32.758Z,101951.14
2018-10-07T10:48:07.343Z,101947.20
2018-10-07T10:50:41.079Z,101955.80
2018-10-07T10:53:18.855Z,101958.08
2018-10-07T10:56:01.224Z,101963.70
2018-10-07T10:58:36.236Z,101973.99
2018-10-07T11:02:15.600Z,101975.08
2018-10-07T11:04:52.285Z,101972.79
2018-10-07T11:07:34.668Z,101980.06
2018-10-07T11:10:41.680Z,101982.11
2018-10-07T11:13:20.731Z,101986.45
2018-10-07T11:15:59.133Z,101987.03
2018-10-07T11:18:47.225Z,101989.78
2018-10-07T11:21:57.981Z,101993.75
2018-10-07T11:24:39.100Z,101994.23
2018-10-07T11:27:18.229Z,101989.34
2018-10-07T11:29:56.205Z,101988.55
2018-10-07T11:33:07.515Z,101992.83
2018-10-07T11:35:51.631Z,101994.42
2018-10-07T11:38:48.420Z,101998.70
2018-10-07T11:41:27.687Z,102004.41
2018-10-07T11:44:03.648Z,102010.81
2018-10-07T11:46:46.432Z,102009.08
2018-10-07T11:49:19.072Z,102020.24
2018-10-07T11:52:45.863Z,102015.20
2018-10-07T11:55:14.164Z,102022.03
2018-10-07T11:57:42.488Z,102023.20
2018-10-07T12:00:10.841Z,102025.00
2018-10-07T12:02:39.354Z,102034.94
2018-10-07T12:05:07.847Z,102038.09
2018-10-07T12:07:36.276Z,102036.28
2018-10-07T12:10:04.786Z,102036.63
2018-10-07T12:12:33.067Z,102041.55
2018-10-07T12:15:01.391Z,102051.94
2018-10-07T12:17:30.761Z,102047.98
2018-10-07T12:19:59.472Z,102044.17
2018-10-07T12:22:27.909Z,102037.67
2018-10-07T12:24:56.286Z,102045.36
2018-10-07T12:27:24.685Z,102044.77
2018-10-07T12:29:55.033Z,102054.14
2018-10-07T12:32:23.485Z,102051.22
2018-10-07T12:34:51.809Z,102052.30
2018-10-07T12:37:20.167Z,102051.06
2018-10-07T12:39:48.593Z,102052.57
2018-10-07T12:42:17.936Z,102059.99
2018-10-07T12:44:46.432Z,102061.56
2018-10-07T12:47:15.044Z,102049.49
2018-10-07T12:49:43.432Z,102049.39
2018-10-07T12:52:11.749Z,102052.55
2018-10-07T12:54:40.097Z,102050.75
2018-10-07T12:57:09.843Z,102056.56
2018-10-07T12:59:38.156Z,102060.94
2018-10-07T13:02:06.507Z,102064.06
2018-10-07T13:04:34.803Z,102066.70
2018-10-07T13:07:03.123Z,102059.18
2018-10-07T13:09:31.513Z,102053.56
2018-10-07T13:11:59.866Z,102046.55
2018-10-07T13:14:28.189Z,102050.14
2018-10-07T13:16:56.524Z,102067.17
2018-10-07T13:19:24.923Z,102074.81
2018-10-07T13:21:53.184Z,102079.17
2018-10-07T13:24:21.909Z,102080.02
2018-10-07T13:26:50.340Z,102080.00
2018-10-07T13:29:19.727Z,102085.23
2018-10-07T13:31:48.099Z,102089.77
2018-10-07T13:34:17.404Z,102098.92
2018-10-07T13:36:45.716Z,102102.78
2018-10-07T13:39:14.080Z,102101.86
2018-10-07T13:41:42.464Z,102098.25
2018-10-07T13:44:10.957Z,102095.17
2018-10-07T13:46:39.291Z,102098.50
2018-10-07T13:49:07.615Z,102105.11
2018-10-07T13:51:35.925Z,102108.38
2018-10-07T13:54:04.265Z,102110.52
2018-10-07T13:56:32.616Z,102116.94
2018-10-07T13:59:00.943Z,102108.14
2018-10-07T14:01:29.292Z,102118.87
2018-10-07T14:03:57.651Z,102128.13
2018-10-07T14:06:25.971Z,102119.99
2018-10-07T14:08:54.819Z,102120.98
2018-10-07T14:11:23.158Z,102123.30
2018-10-07T14:13:51.498Z,102120.38
2018-10-07T14:16:19.948Z,102120.41
2018-10-07T14:18:48.286Z,102121.30
2018-10-07T14:21:16.715Z,102118.86
2018-10-07T14:23:46.059Z,102121.73
2018-10-07T14:26:14.408Z,102118.34
2018-10-07T14:28:42.744Z,102119.16
2018-10-07T14:31:11.398Z,102114.56
2018-10-07T14:33:39.888Z,102110.75
2018-10-07T14:36:08.222Z,102106.13
2018-10-07T14:38:36.565Z,102109.16
2018-10-07T14:41:04.900Z,102102.25
2018-10-07T14:43:33.275Z,102107.89
2018-10-07T14:46:01.616Z,102119.54
2018-10-07T14:48:29.978Z,102126.77
2018-10-07T14:50:58.392Z,102127.94
2018-10-07T14:53:28.832Z,102129.45
2018-10-07T14:55:57.185Z,102140.80
2018-10-07T14:58:25.656Z,102131.22
2018-10-07T15:00:54.010Z,102129.35
2018-10-07T15:03:23.349Z,102128.47
2018-10-07T15:05:52.081Z,102128.35
2018-10-07T15:08:20.432Z,102122.70
2018-10-07T15:10:48.783Z,102127.54
2018-10-07T15:13:17.164Z,102124.71
2018-10-07T15:15:48.601Z,102122.10
2018-10-07T15:18:16.973Z,102130.67
2018-10-07T15:20:45.417Z,102134.62
2018-10-07T15:23:13.772Z,102131.70
2018-10-07T15:25:43.140Z,102131.52
2018-10-07T15:28:11.615Z,102134.84
2018-10-07T15:30:40.003Z,102132.56
2018-10-07T15:33:08.361Z,102133.48
2018-10-07T15:35:36.982Z,102147.09
2018-10-07T15:38:05.328Z,102143.89
2018-10-07T15:40:33.784Z,102151.52
2018-10-07T15:43:02.864Z,102149.27
2018-10-07T15:45:31.197Z,102153.30
2018-10-07T15:47:59.754Z,102156.20
2018-10-07T15:50:28.150Z,102154.22
2018-10-07T15:52:56.493Z,102160.28
2018-10-07T15:55:24.819Z,102155.89
2018-10-07T15:57:53.204Z,102159.09
2018-10-07T16:00:21.524Z,102159.92
2018-10-07T16:02:50.139Z,102157.62
2018-10-07T16:05:18.479Z,102153.31
2018-10-07T16:07:46.799Z,102148.14
2018-10-07T16:10:15.143Z,102146.20
2018-10-07T16:12:43.484Z,102152.41
2018-10-07T16:15:11.828Z,102161.17
2018-10-07T16:17:41.878Z,102157.62
2018-10-07T16:20:10.268Z,102153.06
2018-10-07T16:22:38.784Z,102155.27
2018-10-07T16:25:07.153Z,102149.38
2018-10-07T16:27:35.538Z,102161.26
2018-10-07T16:30:03.920Z,102160.20
2018-10-07T16:32:32.265Z,102166.05
2018-10-07T16:35:01.718Z,102165.82
2018-10-07T16:37:31.064Z,102171.38
2018-10-07T16:39:59.401Z,102179.31
2018-10-07T16:42:27.948Z,102190.67
2018-10-07T16:44:57.374Z,102188.98
2018-10-07T16:47:26.725Z,102202.70
2018-10-07T16:49:55.105Z,102202.27
2018-10-07T16:52:23.640Z,102203.07
2018-10-07T16:54:51.991Z,102208.19
2018-10-07T16:57:20.396Z,102213.91
2018-10-07T16:59:48.744Z,102213.39
2018-10-07T17:02:17.454Z,102220.88
2018-10-07T17:04:45.849Z,102219.48
2018-10-07T17:07:14.201Z,102221.12
2018-10-07T17:09:42.577Z,102218.56
2018-10-07T17:12:10.924Z,102223.19
2018-10-07T17:14:39.269Z,102219.80
2018-10-07T17:17:07.788Z,102221.58
2018-10-07T17:19:36.160Z,102229.75
2018-10-07T17:22:04.508Z,102230.69
2018-10-07T17:24:32.880Z,102234.65
2018-10-07T17:27:01.257Z,102243.58
2018-10-07T17:29:29.599Z,102245.53
2018-10-07T17:31:57.957Z,102249.31
2018-10-07T17:34:26.322Z,102248.88
2018-10-07T17:36:54.674Z,102250.27
2018-10-07T17:39:23.058Z,102255.32
2018-10-07T17:41:51.769Z,102261.70
2018-10-07T17:44:20.145Z,102264.15
2018-10-07T17:46:48.497Z,102281.41
2018-10-07T17:49:16.880Z,102286.28
2018-10-07T17:51:46.305Z,102278.14
2018-10-07T17:54:15.493Z,102284.22
2018-10-07T17:56:44.950Z,102270.46
2018-10-07T17:59:14.306Z,102278.39
2018-10-07T18:01:42.725Z,102275.03
2018-10-07T18:04:11.062Z,102273.91
2018-10-07T18:06:39.573Z,102273.70
2018-10-07T18:09:08.945Z,102271.37
2018-10-07T18:11:37.377Z,102266.97
2018-10-07T18:14:05.769Z,102266.69
2018-10-07T18:16:34.381Z,102273.90
2018-10-07T18:19:02.782Z,102270.70
2018-10-07T18:21:31.145Z,102265.83
2018-10-07T18:23:59.485Z,102271.44
2018-10-07T18:26:27.856Z,102269.17
2018-10-07T18:28:56.204Z,102267.49
2018-10-07T18:31:24.584Z,102271.03
2018-10-07T18:33:52.992Z,102269.73
2018-10-07T18:36:21.431Z,102274.58
2018-10-07T18:38:50.236Z,102271.30
2018-10-07T18:41:18.580Z,102286.77
2018-10-07T18:43:46.916Z,102285.97
2018-10-07T18:46:15.254Z,102281.00
2018-10-07T18:48:43.636Z,102286.16
2018-10-07T18:51:11.915Z,102291.13
2018-10-07T18:53:40.210Z,102291.46
2018-10-07T18:56:08.535Z,102298.75
2018-10-07T18:58:36.823Z,102292.95
2018-10-07T19:01:06.186Z,102301.70
2018-10-07T19:03:35.484Z,102310.97
2018-10-07T19:06:04.903Z,102316.11
2018-10-07T19:08:33.262Z,102316.86
2018-10-07T19:11:01.504Z,102319.44
2018-10-07T19:13:29.909Z,102318.55
2018-10-07T19:15:58.225Z,102314.70
2018-10-07T19:18:26.519Z,102316.17
2018-10-07T19:20:54.876Z,102314.39
2018-10-07T19:23:23.217Z,102324.34
2018-10-07T19:25:51.645Z,102322.47
2018-10-07T19:28:19.988Z,102320.89
2018-10-07T19:30:48.623Z,102320.19
2018-10-07T19:33:16.966Z,102323.50
2018-10-07T19:35:45.317Z,102309.44
2018-10-07T19:38:13.673Z,102312.67
2018-10-07T19:40:43.052Z,102327.84
2018-10-07T19:43:11.430Z,102321.91
2018-10-07T19:45:39.785Z,102320.84
2018-10-07T19:48:10.245Z,102329.84
2018-10-07T19:50:39.685Z,102327.20
2018-10-07T19:53:08.581Z,102328.83
2018-10-07T19:55:39.112Z,102320.78
2018-10-07T19:58:07.469Z,102309.29
2018-10-07T20:00:36.597Z,102319.34
2018-10-07T20:03:04.970Z,102307.66
2018-10-07T20:05:33.365Z,102308.03
2018-10-07T20:08:01.764Z,102309.16
2018-10-07T20:10:30.165Z,102303.36
2018-10-07T20:12:58.555Z,102298.50
2018-10-07T20:15:26.926Z,102295.74
2018-10-07T20:17:55.284Z,102297.09
2018-10-07T20:20:23.628Z,102300.51
2018-10-07T20:22:53.081Z,102294.01
2018-10-07T20:25:21.445Z,102292.46
2018-10-07T20:27:49.836Z,102298.95
2018-10-07T20:30:18.184Z,102297.64
2018-10-07T20:32:46.530Z,102299.50
2018-10-07T20:35:14.976Z,102299.23
2018-10-07T20:37:44.358Z,102293.26
2018-10-07T20:40:13.803Z,102293.58
2018-10-07T20:42:42.729Z,102290.30
2018-10-07T20:45:11.418Z,102283.76
2018-10-07T20:47:39.818Z,102294.45
2018-10-07T20:50:08.281Z,102293.95
2018-10-07T20:52:36.739Z,102296.10
2018-10-07T20:55:05.152Z,102303.81
2018-10-07T20:57:33.611Z,102300.96
2018-10-07T21:00:01.978Z,102300.76
2018-10-07T21:02:30.366Z,102297.79
2018-10-07T21:04:59.821Z,102286.23
2018-10-07T21:07:28.193Z,102297.59
2018-10-07T21:09:57.553Z,102293.00
2018-10-07T21:12:25.929Z,102285.07
2018-10-07T21:14:54.273Z,102281.58
2018-10-07T21:17:22.641Z,102278.01
2018-10-07T21:19:51.032Z,102277.60
2018-10-07T21:22:19.372Z,102274.55
2018-10-07T21:24:47.722Z,102274.48
2018-10-07T21:27:16.170Z,102271.32
2018-10-07T21:29:44.554Z,102273.18
2018-10-07T21:32:12.891Z,102264.79
2018-10-07T21:34:41.277Z,102271.15
2018-10-07T21:37:09.608Z,102269.38
2018-10-07T21:39:37.972Z,102268.86
2018-10-07T21:42:06.332Z,102271.77
2018-10-07T21:44:34.667Z,102273.68
2018-10-07T21:47:03.308Z,102270.28
2018-10-07T21:49:31.636Z,102274.17
2018-10-07T21:51:59.973Z,102274.12
2018-10-07T21:54:28.339Z,102275.30
2018-10-07T21:56:56.717Z,102283.72
2018-10-07T21:59:25.125Z,102275.94
2018-10-07T22:01:53.464Z,102280.72
2018-10-07T22:04:21.828Z,102277.34
2018-10-07T22:06:50.197Z,102278.20
2018-10-07T22:09:18.564Z,102277.17
2018-10-07T22:11:46.916Z,102278.56
2018-10-07T22:14:16.325Z,102280.61
2018-10-07T22:16:44.832Z,102280.52
2018-10-07T22:19:13.221Z,102277.06
2018-10-07T22:21:41.565Z,102279.81
2018-10-07T22:24:10.074Z,102279.60
2018-10-07T22:26:38.422Z,102277.37
2018-10-07T22:29:07.068Z,102274.14
2018-10-07T22:31:35.430Z,102274.77
2018-10-07T22:34:04.880Z,102284.59
2018-10-07T22:36:33.230Z,102287.20
2018-10-07T22:39:01.751Z,102283.81
2018-10-07T22:41:30.136Z,102279.73
2018-10-07T22:43:58.470Z,102281.75
2018-10-07T22:46:26.838Z,102279.05
2018-10-07T22:48:56.555Z,102273.07
2018-10-07T22:51:25.010Z,102272.91
2018-10-07T22:53:53.380Z,102277.58
2018-10-07T22:56:21.721Z,102277.84
2018-10-07T22:58:50.057Z,102273.20
2018-10-07T23:01:18.441Z,102275.06
2018-10-07T23:03:46.773Z,102271.23
2018-10-07T23:06:15.172Z,102266.60
2018-10-07T23:08:43.649Z,102267.91
2018-10-07T23:11:11.992Z,102272.07
2018-10-07T23:13:40.304Z,102276.30
2018-10-07T23:16:09.736Z,102274.61
2018-10-07T23:18:38.053Z,102279.61
2018-10-07T23:21:07.420Z,102277.39
2018-10-07T23:23:35.771Z,102275.53
2018-10-07T23:26:04.128Z,102269.73
2018-10-07T23:28:32.436Z,102276.34
2018-10-07T23:31:00.812Z,102283.08
2018-10-07T23:33:29.141Z,102281.81
2018-10-07T23:35:57.508Z,102279.50
2018-10-07T23:38:26.085Z,102281.22
2018-10-07T23:40:55.612Z,102271.70
2018-10-07T23:43:24.999Z,102268.52
2018-10-07T23:45:53.372Z,102278.95
2018-10-07T23:48:21.792Z,102277.73
2018-10-07T23:50:50.240Z,102285.70
2018-10-07T23:53:18.608Z,102289.23
2018-10-07T23:55:46.937Z,102290.07
2018-10-07T23:58:15.316Z,102292.84
